< < Back
Terminal Aerodrome Forecast


Current Version              Previous Versions:   1  2  3  4  5  6  7  8  9  

Terminal Aerodrome Forecast

012
FTUS44 KOHX 272300
TAFCSV
TAF
KCSV 272324Z 2800/2824 33010KT P6SM SCT030 OVC050
     FM280200 33005KT P6SM SCT030=

Latest METAR

077
SAUS70 KWBC 280000 RRJ
MTRCSV
METAR KCSV 272353Z AUTO 32011KT 10SM FEW032 BKN045 BKN060 03/M03 A2995
RMK AO2 SLP151 60000 T00331033 10083 20033 53014


USA.gov is the U.S. government's official web portal to all federal, state and local government web resources and services.